createdAt,value
2023-02-04T00:02:05.730Z,102831.03
2023-02-04T00:04:32.324Z,102833.44
2023-02-04T00:06:59.018Z,102834.28
2023-02-04T00:09:25.807Z,102829.03
2023-02-04T00:11:52.420Z,102833.28
2023-02-04T00:14:19.033Z,102843.59
2023-02-04T00:16:45.686Z,102851.22
2023-02-04T00:19:12.444Z,102844.41
2023-02-04T00:21:38.998Z,102841.03
2023-02-04T00:24:05.823Z,102852.06
2023-02-04T00:26:32.418Z,102848.66
2023-02-04T00:28:59.074Z,102848.66
2023-02-04T00:31:25.842Z,102854.66
2023-02-04T00:33:52.786Z,102859.72
2023-02-04T00:36:19.631Z,102869.13
2023-02-04T00:38:46.265Z,102863.03
2023-02-04T00:41:12.951Z,102874.06
2023-02-04T00:43:39.850Z,102872.34
2023-02-04T00:46:06.571Z,102881.75
2023-02-04T00:48:34.501Z,102885.06
2023-02-04T00:51:01.394Z,102873.00
2023-02-04T00:53:28.053Z,102871.22
2023-02-04T00:55:55.053Z,102883.22
2023-02-04T00:58:21.647Z,102882.28
2023-02-04T01:00:49.346Z,102879.69
2023-02-04T01:03:17.159Z,102888.28
2023-02-04T01:05:43.730Z,102889.22
2023-02-04T01:08:10.252Z,102901.16
2023-02-04T01:10:36.989Z,102902.91
2023-02-04T01:13:03.735Z,102909.75
2023-02-04T01:15:30.369Z,102912.34
2023-02-04T01:17:57.993Z,102919.97
2023-02-04T01:20:24.826Z,102924.31
2023-02-04T01:22:51.680Z,102920.06
2023-02-04T01:25:18.549Z,102929.56
2023-02-04T01:27:45.648Z,102928.72
2023-02-04T01:30:15.098Z,102926.97
2023-02-04T01:32:41.951Z,102928.72
2023-02-04T01:35:09.727Z,102924.59
2023-02-04T01:37:36.409Z,102927.97
2023-02-04T01:40:04.562Z,102928.81
2023-02-04T01:42:31.480Z,102935.72
2023-02-04T01:44:58.095Z,102940.88
2023-02-04T01:47:25.695Z,102935.81
2023-02-04T01:49:54.771Z,102934.91
2023-02-04T01:52:22.838Z,102941.72
2023-02-04T01:54:53.244Z,102942.56
2023-02-04T01:57:19.970Z,102939.97
2023-02-04T01:59:48.492Z,102941.63
2023-02-04T02:02:41.431Z,102949.38
2023-02-04T02:05:15.462Z,102939.03
2023-02-04T02:07:43.658Z,102941.63
2023-02-04T02:10:13.584Z,102950.13
2023-02-04T02:12:41.063Z,102948.47
2023-02-04T02:15:08.801Z,102951.03
2023-02-04T02:17:36.214Z,102953.53
2023-02-04T02:20:06.034Z,102958.69
2023-02-04T02:22:41.082Z,102958.63
2023-02-04T02:25:12.553Z,102963.78
2023-02-04T02:27:39.677Z,102969.75
2023-02-04T02:30:11.358Z,102972.25
2023-02-04T02:32:38.320Z,102972.25
2023-02-04T02:35:05.842Z,102968.00
2023-02-04T02:37:32.561Z,102968.84
2023-02-04T02:39:59.302Z,102980.91
2023-02-04T02:42:26.326Z,102982.56
2023-02-04T02:44:54.995Z,102976.56
2023-02-04T02:47:23.410Z,102980.00
2023-02-04T02:49:52.756Z,102977.41
2023-02-04T02:52:20.281Z,102980.00
2023-02-04T02:54:47.606Z,102980.81
2023-02-04T02:57:17.701Z,102986.91
2023-02-04T02:59:44.725Z,102984.31
2023-02-04T03:02:14.473Z,102980.06
2023-02-04T03:04:45.858Z,102982.66
2023-02-04T03:07:15.713Z,102975.75
2023-02-04T03:09:42.364Z,102987.00
2023-02-04T03:12:09.077Z,102989.56
2023-02-04T03:14:38.363Z,102989.56
2023-02-04T03:17:09.316Z,102998.13
2023-02-04T03:19:39.385Z,102996.38
2023-02-04T03:22:07.195Z,102993.91
2023-02-04T03:24:34.526Z,103000.81
2023-02-04T03:27:01.321Z,102999.97
2023-02-04T03:29:29.749Z,103006.91
2023-02-04T03:32:00.150Z,103004.31
2023-02-04T03:34:28.089Z,103005.97
2023-02-04T03:36:55.082Z,103006.91
2023-02-04T03:39:21.728Z,103004.31
2023-02-04T03:41:48.273Z,103004.50
2023-02-04T03:44:33.428Z,103012.22
2023-02-04T03:47:00.217Z,103022.56
2023-02-04T03:49:28.448Z,103020.06
2023-02-04T03:51:55.643Z,103031.28
2023-02-04T03:54:22.224Z,103029.63
2023-02-04T03:56:48.854Z,103033.13
2023-02-04T03:59:15.402Z,103031.56
2023-02-04T04:01:41.998Z,103035.97
2023-02-04T04:04:09.925Z,103037.72
2023-02-04T04:06:36.502Z,103031.72
2023-02-04T04:09:03.166Z,103030.97
2023-02-04T04:11:29.885Z,103030.06
2023-02-04T04:13:56.549Z,103037.81
2023-02-04T04:16:24.517Z,103041.19
2023-02-04T04:18:51.222Z,103037.88
2023-02-04T04:21:17.891Z,103042.13
2023-02-04T04:23:45.571Z,103040.47
2023-02-04T04:26:12.245Z,103049.88
2023-02-04T04:28:38.889Z,103040.41
2023-02-04T04:31:05.794Z,103053.19
2023-02-04T04:33:32.451Z,103049.72
2023-02-04T04:35:59.096Z,103053.94
2023-02-04T04:38:25.690Z,103063.25
2023-02-04T04:40:52.237Z,103078.63
2023-02-04T04:43:18.891Z,103074.31
2023-02-04T04:45:45.476Z,103080.41
2023-02-04T04:48:12.508Z,103088.91
2023-02-04T04:50:39.104Z,103087.97
2023-02-04T04:53:06.646Z,103098.28
2023-02-04T04:55:33.893Z,103088.81
2023-02-04T04:58:00.512Z,103092.22
2023-02-04T05:00:27.084Z,103086.97
2023-02-04T05:02:53.897Z,103086.97
2023-02-04T05:05:20.532Z,103089.53
2023-02-04T05:07:47.144Z,103097.22
2023-02-04T05:10:14.142Z,103104.13
2023-02-04T05:12:40.947Z,103104.13
2023-02-04T05:15:08.086Z,103102.38
2023-02-04T05:17:34.742Z,103105.03
2023-02-04T05:20:01.299Z,103117.09
2023-02-04T05:22:27.902Z,103120.50
2023-02-04T05:24:54.696Z,103121.44
2023-02-04T05:27:21.606Z,103124.84
2023-02-04T05:29:48.351Z,103129.19
2023-02-04T05:32:15.257Z,103124.94
2023-02-04T05:34:42.512Z,103118.03
2023-02-04T05:37:09.098Z,103130.09
2023-02-04T05:39:35.819Z,103132.75
2023-02-04T05:42:02.355Z,103144.81
2023-02-04T05:44:29.172Z,103139.75
2023-02-04T05:46:55.811Z,103141.50
2023-02-04T05:49:22.443Z,103137.19
2023-02-04T05:51:49.144Z,103140.66
2023-02-04T05:54:21.655Z,103139.81
2023-02-04T05:56:48.341Z,103141.56
2023-02-04T05:59:15.378Z,103141.56
2023-02-04T06:01:43.244Z,103145.19
2023-02-04T06:04:10.112Z,103147.75
2023-02-04T06:06:36.831Z,103146.22
2023-02-04T06:09:04.167Z,103144.50
2023-02-04T06:11:32.114Z,103141.06
2023-02-04T06:13:58.748Z,103142.00
2023-02-04T06:16:25.645Z,103148.00
2023-02-04T06:18:52.372Z,103148.91
2023-02-04T06:21:20.187Z,103154.06
2023-02-04T06:23:46.914Z,103157.56
2023-02-04T06:26:13.671Z,103156.75
2023-02-04T06:28:40.235Z,103160.22
2023-02-04T06:31:07.025Z,103169.78
2023-02-04T06:33:33.918Z,103172.47
2023-02-04T06:36:00.486Z,103179.28
2023-02-04T06:38:27.628Z,103186.13
2023-02-04T06:40:54.628Z,103198.91
2023-02-04T06:43:21.870Z,103189.53
2023-02-04T06:45:48.688Z,103192.84
2023-02-04T06:48:16.760Z,103194.50
2023-02-04T06:50:43.519Z,103197.94
2023-02-04T06:53:10.336Z,103193.50
2023-02-04T06:55:37.065Z,103197.78
2023-02-04T06:58:03.804Z,103196.84
2023-02-04T07:00:31.742Z,103202.00
2023-02-04T07:02:59.099Z,103204.41
2023-02-04T07:05:26.961Z,103206.84
2023-02-04T07:07:53.631Z,103211.06
2023-02-04T07:10:23.478Z,103213.66
2023-02-04T07:12:50.085Z,103216.19
2023-02-04T07:15:16.822Z,103213.50
2023-02-04T07:17:43.467Z,103217.72
2023-02-04T07:20:12.073Z,103225.47
2023-02-04T07:22:38.945Z,103219.31
2023-02-04T07:25:05.847Z,103217.56
2023-02-04T07:27:32.480Z,103224.47
2023-02-04T07:29:59.194Z,103228.81
2023-02-04T07:32:27.877Z,103238.31
2023-02-04T07:34:54.557Z,103236.56
2023-02-04T07:37:23.762Z,103234.06
2023-02-04T07:39:50.371Z,103247.69
2023-02-04T07:42:17.319Z,103251.13
2023-02-04T07:44:44.134Z,103249.38
2023-02-04T07:47:10.820Z,103252.81
2023-02-04T07:49:37.487Z,103258.78
2023-02-04T07:52:04.275Z,103262.13
2023-02-04T07:54:31.005Z,103264.63
2023-02-04T07:56:57.866Z,103268.78
2023-02-04T07:59:24.697Z,103270.44
2023-02-04T08:01:51.466Z,103274.59
2023-02-04T08:04:18.081Z,103277.94
2023-02-04T08:06:44.681Z,103283.78
2023-02-04T08:09:11.423Z,103287.94
2023-02-04T08:11:38.151Z,103297.19
2023-02-04T08:14:04.860Z,103297.94
2023-02-04T08:16:31.523Z,103309.84
2023-02-04T08:18:58.199Z,103301.09
2023-02-04T08:21:24.969Z,103312.25
2023-02-04T08:23:51.645Z,103316.50
2023-02-04T08:26:18.297Z,103316.44
2023-02-04T08:28:44.903Z,103314.59
2023-02-04T08:31:12.070Z,103316.25
2023-02-04T08:33:39.918Z,103316.25
2023-02-04T08:36:07.891Z,103317.09
2023-02-04T08:38:34.799Z,103317.78
2023-02-04T08:41:01.775Z,103319.56
2023-02-04T08:43:28.463Z,103318.69
2023-02-04T08:45:55.071Z,103313.41
2023-02-04T08:48:21.853Z,103322.59
2023-02-04T08:50:48.541Z,103318.06
2023-02-04T08:53:15.466Z,103324.66
2023-02-04T08:55:42.144Z,103332.91
2023-02-04T08:58:08.783Z,103325.84
2023-02-04T09:00:36.040Z,103329.06
2023-02-04T09:03:03.078Z,103332.25
2023-02-04T09:05:30.692Z,103329.41
2023-02-04T09:07:57.535Z,103327.56
2023-02-04T09:10:24.491Z,103332.56
2023-02-04T09:12:56.103Z,103338.38
2023-02-04T09:15:25.591Z,103340.06
2023-02-04T09:18:04.806Z,103341.91
2023-02-04T09:20:31.810Z,103337.72
2023-02-04T09:22:58.620Z,103353.25
2023-02-04T09:25:25.357Z,103351.25
2023-02-04T09:27:52.067Z,103352.63
2023-02-04T09:30:18.807Z,103351.53
2023-02-04T09:32:45.483Z,103353.03
2023-02-04T09:35:12.514Z,103360.53
2023-02-04T09:37:39.148Z,103367.78
2023-02-04T09:40:06.279Z,103370.44
2023-02-04T09:42:33.426Z,103361.59
2023-02-04T09:45:03.101Z,103360.41
2023-02-04T09:47:30.610Z,103355.06
2023-02-04T09:49:57.679Z,103356.56
2023-02-04T09:52:27.493Z,103362.31
2023-02-04T09:54:54.110Z,103357.72
2023-02-04T09:57:22.023Z,103360.69
2023-02-04T09:59:50.871Z,103367.16
2023-02-04T10:02:22.242Z,103362.56
2023-02-04T10:04:51.382Z,103365.81
2023-02-04T10:07:22.476Z,103370.06
2023-02-04T10:09:50.288Z,103371.63
2023-02-04T10:12:17.106Z,103380.22
2023-02-04T10:14:44.285Z,103386.16
2023-02-04T10:17:20.152Z,103393.53
2023-02-04T10:19:47.029Z,103395.13
2023-02-04T10:22:22.288Z,103390.59
2023-02-04T10:24:49.893Z,103395.50
2023-02-04T10:27:16.706Z,103396.53
2023-02-04T10:29:56.660Z,103400.22
2023-02-04T10:32:32.450Z,103403.16
2023-02-04T10:35:02.895Z,103401.50
2023-02-04T10:37:30.763Z,103411.59
2023-02-04T10:39:58.098Z,103397.44
2023-02-04T10:42:27.643Z,103403.44
2023-02-04T10:44:57.596Z,103411.31
2023-02-04T10:47:26.417Z,103418.78
2023-02-04T10:50:20.057Z,103410.19
2023-02-04T10:52:51.220Z,103421.47
2023-02-04T10:55:21.001Z,103407.69
2023-02-04T10:57:49.970Z,103416.63
2023-02-04T11:00:19.575Z,103416.16
2023-02-04T11:03:00.960Z,103420.97
2023-02-04T11:05:33.718Z,103423.56
2023-02-04T11:08:01.838Z,103418.47
2023-02-04T11:10:32.224Z,103419.31
2023-02-04T11:13:04.911Z,103413.41
2023-02-04T11:15:40.608Z,103418.75
2023-02-04T11:18:10.873Z,103410.41
2023-02-04T11:20:41.534Z,103418.59
2023-02-04T11:23:26.483Z,103422.03
2023-02-04T11:26:16.455Z,103414.38
2023-02-04T11:28:59.806Z,103414.94
2023-02-04T11:31:30.165Z,103417.91
2023-02-04T11:34:15.119Z,103409.44
2023-02-04T11:37:01.048Z,103406.94
2023-02-04T11:39:44.965Z,103414.00
2023-02-04T11:42:24.678Z,103409.09
2023-02-04T11:45:06.781Z,103395.72
2023-02-04T11:47:36.474Z,103399.66
2023-02-04T11:50:22.328Z,103404.50
2023-02-04T11:52:49.084Z,103403.09
2023-02-04T11:55:16.954Z,103404.94
2023-02-04T11:57:44.417Z,103407.69
2023-02-04T12:00:20.086Z,103403.69
2023-02-04T12:02:50.044Z,103406.72
2023-02-04T12:05:19.915Z,103409.69
2023-02-04T12:07:48.101Z,103411.34
2023-02-04T12:10:17.725Z,103420.16
2023-02-04T12:12:49.892Z,103421.09
2023-02-04T12:15:24.289Z,103421.91
2023-02-04T12:18:08.540Z,103417.66
2023-02-04T12:20:39.072Z,103420.75
2023-02-04T12:23:06.084Z,103415.88
2023-02-04T12:25:34.314Z,103417.97
2023-02-04T12:28:01.071Z,103414.28
2023-02-04T12:30:27.968Z,103418.06
2023-02-04T12:32:54.692Z,103415.69
2023-02-04T12:35:21.316Z,103414.03
2023-02-04T12:37:48.009Z,103405.50
2023-02-04T12:40:17.398Z,103408.72
2023-02-04T12:42:44.294Z,103410.59
2023-02-04T12:45:12.612Z,103411.53
2023-02-04T12:47:39.748Z,103419.47
2023-02-04T12:50:08.210Z,103421.69
2023-02-04T12:52:35.043Z,103426.31
2023-02-04T12:55:01.784Z,103423.06
2023-02-04T12:57:28.462Z,103430.84
2023-02-04T12:59:57.861Z,103429.19
2023-02-04T13:02:24.849Z,103429.53
2023-02-04T13:04:52.154Z,103430.53
2023-02-04T13:07:18.869Z,103421.13
2023-02-04T13:09:45.546Z,103427.16
2023-02-04T13:12:15.246Z,103418.44
2023-02-04T13:14:43.132Z,103415.69
2023-02-04T13:17:10.673Z,103411.06
2023-02-04T13:19:37.378Z,103417.81
2023-02-04T13:22:04.058Z,103408.66
2023-02-04T13:24:31.178Z,103407.72
2023-02-04T13:26:57.868Z,103405.78
2023-02-04T13:29:24.882Z,103404.84
2023-02-04T13:31:52.131Z,103410.13
2023-02-04T13:34:19.679Z,103404.22
2023-02-04T13:36:46.379Z,103400.63
2023-02-04T13:39:13.256Z,103399.66
2023-02-04T13:41:40.995Z,103391.00
2023-02-04T13:44:08.211Z,103394.13
2023-02-04T13:46:35.043Z,103393.41
2023-02-04T13:49:01.862Z,103395.72
2023-02-04T13:51:28.607Z,103388.84
2023-02-04T13:53:55.593Z,103397.63
2023-02-04T13:56:22.248Z,103401.16
2023-02-04T13:58:49.001Z,103388.28
2023-02-04T14:01:15.927Z,103393.69
2023-02-04T14:03:42.952Z,103399.22
2023-02-04T14:06:09.892Z,103400.88
2023-02-04T14:08:36.536Z,103404.38
2023-02-04T14:11:03.179Z,103400.88
2023-02-04T14:13:30.230Z,103401.81
2023-02-04T14:15:57.161Z,103405.41
2023-02-04T14:18:23.895Z,103403.94
2023-02-04T14:20:50.654Z,103406.69
2023-02-04T14:23:17.446Z,103416.25
2023-02-04T14:25:44.241Z,103415.31
2023-02-04T14:28:11.043Z,103401.25
2023-02-04T14:30:38.127Z,103402.91
2023-02-04T14:33:05.190Z,103407.47
2023-02-04T14:35:31.939Z,103412.44
2023-02-04T14:37:59.037Z,103408.28
2023-02-04T14:40:26.974Z,103418.63
2023-02-04T14:42:53.718Z,103416.41
2023-02-04T14:45:20.626Z,103423.34
2023-02-04T14:47:47.407Z,103428.41
2023-02-04T14:50:16.759Z,103422.44
2023-02-04T14:52:43.495Z,103427.69
2023-02-04T14:55:11.934Z,103431.38
2023-02-04T14:57:38.943Z,103433.97
2023-02-04T15:00:07.360Z,103427.59
2023-02-04T15:02:34.070Z,103429.34
2023-02-04T15:05:01.011Z,103431.94
2023-02-04T15:07:27.881Z,103432.03
2023-02-04T15:09:54.863Z,103440.81
2023-02-04T15:12:22.555Z,103434.88
2023-02-04T15:14:49.200Z,103440.22
2023-02-04T15:17:15.932Z,103437.00
2023-02-04T15:19:42.783Z,103439.75
2023-02-04T15:22:12.621Z,103436.59
2023-02-04T15:24:39.970Z,103439.28
2023-02-04T15:27:07.008Z,103446.19
2023-02-04T15:29:34.024Z,103445.47
2023-02-04T15:32:00.994Z,103450.63
2023-02-04T15:34:27.814Z,103446.31
2023-02-04T15:36:54.562Z,103457.41
2023-02-04T15:39:21.157Z,103446.03
2023-02-04T15:41:47.830Z,103449.38
2023-02-04T15:44:14.644Z,103447.78
2023-02-04T15:46:41.493Z,103455.53
2023-02-04T15:49:09.117Z,103454.06
2023-02-04T15:51:35.855Z,103456.81
2023-02-04T15:54:05.001Z,103457.16
2023-02-04T15:56:31.732Z,103457.50
2023-02-04T15:59:00.369Z,103457.59
2023-02-04T16:01:28.095Z,103462.94
2023-02-04T16:03:56.607Z,103459.03
2023-02-04T16:06:24.008Z,103454.94
2023-02-04T16:08:50.893Z,103454.34
2023-02-04T16:11:18.135Z,103455.28
2023-02-04T16:13:44.841Z,103455.28
2023-02-04T16:16:11.698Z,103460.59
2023-02-04T16:18:38.598Z,103459.03
2023-02-04T16:21:05.869Z,103463.50
2023-02-04T16:23:32.654Z,103466.19
2023-02-04T16:26:00.428Z,103473.03
2023-02-04T16:28:29.502Z,103477.38
2023-02-04T16:30:56.659Z,103472.47
2023-02-04T16:33:24.731Z,103477.03
2023-02-04T16:36:07.867Z,103471.38
2023-02-04T16:38:36.680Z,103475.94
2023-02-04T16:41:03.830Z,103480.63
2023-02-04T16:43:31.258Z,103476.59
2023-02-04T16:45:58.979Z,103475.94
2023-02-04T16:48:25.665Z,103465.75
2023-02-04T16:50:52.320Z,103472.84
2023-02-04T16:53:19.143Z,103484.25
2023-02-04T16:55:48.026Z,103488.00
2023-02-04T16:58:15.373Z,103483.91
2023-02-04T17:00:44.126Z,103487.75
2023-02-04T17:03:12.467Z,103477.66
2023-02-04T17:05:40.058Z,103477.78
2023-02-04T17:08:07.014Z,103484.19
2023-02-04T17:10:55.025Z,103479.34
2023-02-04T17:13:21.743Z,103484.13
2023-02-04T17:15:48.490Z,103482.69
2023-02-04T17:18:17.211Z,103481.28
2023-02-04T17:20:43.913Z,103479.72
2023-02-04T17:23:10.758Z,103482.72
2023-02-04T17:25:37.634Z,103490.06
2023-02-04T17:28:04.523Z,103482.63
2023-02-04T17:30:31.539Z,103495.00
2023-02-04T17:32:58.356Z,103491.75
2023-02-04T17:35:24.974Z,103498.72
2023-02-04T17:37:53.045Z,103502.34
2023-02-04T17:40:21.216Z,103501.56
2023-02-04T17:42:47.959Z,103516.28
2023-02-04T17:45:14.850Z,103510.38
2023-02-04T17:47:41.559Z,103502.78
2023-02-04T17:50:12.214Z,103499.59
2023-02-04T17:52:39.169Z,103501.63
2023-02-04T17:55:27.466Z,103503.66
2023-02-04T17:57:54.955Z,103500.41
2023-02-04T18:00:23.917Z,103500.63
2023-02-04T18:02:51.885Z,103497.41
2023-02-04T18:05:21.847Z,103506.13
2023-02-04T18:08:14.875Z,103501.19
2023-02-04T18:10:47.365Z,103508.16
2023-02-04T18:13:18.082Z,103498.88
2023-02-04T18:15:52.406Z,103510.97
2023-02-04T18:18:31.861Z,103506.84
2023-02-04T18:21:15.326Z,103506.97
2023-02-04T18:23:43.070Z,103504.53
2023-02-04T18:26:23.555Z,103511.47
2023-02-04T18:28:50.915Z,103505.84
2023-02-04T18:31:44.887Z,103508.66
2023-02-04T18:34:21.314Z,103514.72
2023-02-04T18:36:48.739Z,103517.44
2023-02-04T18:39:24.811Z,103514.09
2023-02-04T18:41:52.198Z,103512.56
2023-02-04T18:44:38.195Z,103512.81
2023-02-04T18:47:24.807Z,103503.69
2023-02-04T18:49:51.498Z,103507.38
2023-02-04T18:52:20.781Z,103510.94
2023-02-04T18:54:51.686Z,103508.47
2023-02-04T18:57:33.782Z,103514.59
2023-02-04T19:00:18.569Z,103510.28
2023-02-04T19:02:51.830Z,103507.78
2023-02-04T19:05:33.888Z,103513.91
2023-02-04T19:08:06.809Z,103517.47
2023-02-04T19:10:37.544Z,103510.81
2023-02-04T19:13:26.568Z,103507.53
2023-02-04T19:16:01.232Z,103515.28
2023-02-04T19:18:29.336Z,103506.81
2023-02-04T19:21:01.390Z,103513.88
2023-02-04T19:23:37.640Z,103515.69
2023-02-04T19:26:29.260Z,103507.19
2023-02-04T19:28:56.269Z,103515.06
2023-02-04T19:31:27.866Z,103505.75
2023-02-04T19:33:56.616Z,103514.34
2023-02-04T19:36:37.076Z,103505.00
2023-02-04T19:39:30.868Z,103507.78
2023-02-04T19:41:58.224Z,103512.22
2023-02-04T19:44:43.984Z,103514.91
2023-02-04T19:47:37.080Z,103522.94
2023-02-04T19:50:12.638Z,103516.25
2023-02-04T19:52:52.416Z,103516.34
2023-02-04T19:55:34.176Z,103519.00
2023-02-04T19:58:03.391Z,103522.53
2023-02-04T20:00:38.729Z,103526.84
2023-02-04T20:03:31.414Z,103530.25
2023-02-04T20:06:18.691Z,103519.00
2023-02-04T20:08:46.780Z,103524.03
2023-02-04T20:11:31.397Z,103519.47
2023-02-04T20:14:14.074Z,103518.44
2023-02-04T20:16:46.725Z,103513.19
2023-02-04T20:19:21.768Z,103514.81
2023-02-04T20:22:26.070Z,103513.00
2023-02-04T20:25:00.058Z,103518.91
2023-02-04T20:27:45.037Z,103516.28
2023-02-04T20:30:15.120Z,103507.66
2023-02-04T20:32:51.331Z,103499.09
2023-02-04T20:35:20.734Z,103501.59
2023-02-04T20:37:53.918Z,103499.88
2023-02-04T20:40:21.881Z,103487.84
2023-02-04T20:43:00.845Z,103487.84
2023-02-04T20:45:46.668Z,103478.41
2023-02-04T20:48:16.001Z,103487.84
2023-02-04T20:50:53.579Z,103494.59
2023-02-04T20:53:20.386Z,103495.31
2023-02-04T20:55:50.666Z,103504.59
2023-02-04T20:58:23.712Z,103518.22
2023-02-04T21:00:56.206Z,103524.19
2023-02-04T21:03:29.558Z,103519.84
2023-02-04T21:05:59.053Z,103523.94
2023-02-04T21:08:29.581Z,103510.94
2023-02-04T21:10:57.719Z,103517.69
2023-02-04T21:13:25.510Z,103509.84
2023-02-04T21:15:52.707Z,103516.66
2023-02-04T21:18:20.234Z,103504.63
2023-02-04T21:20:46.928Z,103501.22
2023-02-04T21:23:14.029Z,103498.56
2023-02-04T21:25:40.637Z,103503.66
2023-02-04T21:28:07.361Z,103499.34
2023-02-04T21:30:34.158Z,103495.03
2023-02-04T21:33:02.178Z,103488.06
2023-02-04T21:35:29.184Z,103477.66
2023-02-04T21:38:00.194Z,103472.44
2023-02-04T21:40:27.174Z,103469.78
2023-02-04T21:42:54.370Z,103473.16
2023-02-04T21:45:22.986Z,103474.81
2023-02-04T21:47:50.950Z,103474.69
2023-02-04T21:50:19.731Z,103478.84
2023-02-04T21:52:46.980Z,103474.47
2023-02-04T21:55:16.412Z,103470.09
2023-02-04T21:57:43.185Z,103467.44
2023-02-04T22:00:11.191Z,103470.09
2023-02-04T22:02:37.954Z,103470.84
2023-02-04T22:05:07.400Z,103475.03
2023-02-04T22:07:35.565Z,103478.38
2023-02-04T22:10:03.678Z,103475.78
2023-02-04T22:12:30.373Z,103483.44
2023-02-04T22:14:57.060Z,103492.78
2023-02-04T22:17:23.858Z,103496.19
2023-02-04T22:19:50.638Z,103491.81
2023-02-04T22:22:18.049Z,103496.06
2023-02-04T22:24:44.943Z,103495.22
2023-02-04T22:27:11.814Z,103484.84
2023-02-04T22:29:38.542Z,103482.13
2023-02-04T22:32:05.308Z,103481.25
2023-02-04T22:34:32.011Z,103485.47
2023-02-04T22:36:58.843Z,103483.75
2023-02-04T22:39:25.693Z,103482.03
2023-02-04T22:41:52.742Z,103490.59
2023-02-04T22:44:19.579Z,103491.38
2023-02-04T22:46:47.518Z,103486.13
2023-02-04T22:49:14.589Z,103483.56
2023-02-04T22:51:41.239Z,103494.72
2023-02-04T22:54:07.936Z,103497.22
2023-02-04T22:56:35.034Z,103492.91
2023-02-04T22:59:01.737Z,103493.66
2023-02-04T23:01:28.522Z,103485.03
2023-02-04T23:03:55.254Z,103479.88
2023-02-04T23:06:22.673Z,103478.13
2023-02-04T23:08:50.061Z,103477.22
2023-02-04T23:11:18.614Z,103470.34
2023-02-04T23:13:46.980Z,103460.94
2023-02-04T23:16:13.608Z,103454.13
2023-02-04T23:18:40.335Z,103461.91
2023-02-04T23:21:07.369Z,103467.13
2023-02-04T23:23:34.225Z,103457.72
2023-02-04T23:26:03.706Z,103456.06
2023-02-04T23:28:31.398Z,103452.56
2023-02-04T23:30:58.431Z,103448.25
2023-02-04T23:33:25.214Z,103450.84
2023-02-04T23:35:51.934Z,103446.53
2023-02-04T23:38:18.677Z,103444.72
2023-02-04T23:40:45.322Z,103448.13
2023-02-04T23:43:12.023Z,103448.00
2023-02-04T23:45:38.676Z,103446.22
2023-02-04T23:48:06.144Z,103445.34
2023-02-04T23:50:33.128Z,103435.03
2023-02-04T23:52:59.801Z,103440.19
2023-02-04T23:55:26.732Z,103436.69
2023-02-04T23:57:53.564Z,103423.75
